Rechercher aéroport 
image banner adimage banner adimage banner ad
image banner ad

CA21 - Limberlost Ranch

Situé à Rough And Ready, United States

ICAO - CA21, IATA -

Données fournies par Airmate  

Information générale

Coordonnées: N39°13'15" W121°12'54"
Élévation : 1650 feet MSL.
Variation magnétique : 16° East
Voir autres Aéroports à California

Données opérationnelles

Special qualification required
Heure actuelle UTC:
Heure actuelle locale:
Météo à : KGOO - Nevada County Air Park ( 18 km )
METAR: KGOO 270515Z AUTO 14004KT 10SM OVC080 23/M07 A3006 RMK A01
Voir NOTAMs / SUP AIP / TFR affectant cet aéroport [VIEW]
Fréquences de communication: [VIEW]

Pistes:

Identifiant RWYQFULongueur (ft)Largeur (ft)SurfaceLDA (ft)
101700100GRASS
281700100GRASS

Coordonnées de l'aéroport

Adresse: Rough And Ready United States

Vue satellite de CA21